createdAt,value
2018-05-21T00:00:43.428Z,7.80
2018-05-21T00:03:10.934Z,7.43
2018-05-21T00:05:38.391Z,8.83
2018-05-21T00:08:05.837Z,8.97
2018-05-21T00:10:33.253Z,7.03
2018-05-21T00:13:00.664Z,5.57
2018-05-21T00:15:28.100Z,5.77
2018-05-21T00:17:55.506Z,5.70
2018-05-21T00:20:22.985Z,5.87
2018-05-21T00:22:50.413Z,6.60
2018-05-21T00:25:17.860Z,7.33
2018-05-21T00:27:45.301Z,6.47
2018-05-21T00:30:12.736Z,8.60
2018-05-21T00:32:40.145Z,7.70
2018-05-21T00:35:07.596Z,6.87
2018-05-21T00:37:35.032Z,6.80
2018-05-21T00:40:02.445Z,6.87
2018-05-21T00:42:29.866Z,6.30
2018-05-21T00:44:57.428Z,7.00
2018-05-21T00:47:24.841Z,6.00
2018-05-21T00:49:52.247Z,6.43
2018-05-21T00:52:19.665Z,5.93
2018-05-21T00:54:59.005Z,6.27
2018-05-21T00:57:26.419Z,6.30
2018-05-21T00:59:53.832Z,5.87
2018-05-21T01:02:21.241Z,5.40
2018-05-21T01:04:48.656Z,6.07
2018-05-21T01:07:16.089Z,5.40
2018-05-21T01:09:43.520Z,6.27
2018-05-21T01:12:10.920Z,5.97
2018-05-21T01:14:38.538Z,6.20
2018-05-21T01:17:05.933Z,5.93
2018-05-21T01:19:33.382Z,5.87
2018-05-21T01:22:00.804Z,5.90
2018-05-21T01:24:28.226Z,5.30
2018-05-21T01:26:55.665Z,5.47
2018-05-21T01:29:23.108Z,6.23
2018-05-21T01:31:50.516Z,5.70
2018-05-21T01:34:17.943Z,5.97
2018-05-21T01:36:45.372Z,6.07
2018-05-21T01:39:12.780Z,5.97
2018-05-21T01:41:40.360Z,5.23
2018-05-21T01:44:07.776Z,5.50
2018-05-21T01:46:35.195Z,5.17
2018-05-21T01:49:02.618Z,5.83
2018-05-21T01:51:30.046Z,5.50
2018-05-21T01:53:57.452Z,5.97
2018-05-21T01:56:24.887Z,6.03
2018-05-21T01:58:52.288Z,5.87
2018-05-21T02:01:19.721Z,5.17
2018-05-21T02:03:47.121Z,5.57
2018-05-21T02:06:14.539Z,5.73
2018-05-21T02:08:41.968Z,5.87
2018-05-21T02:11:09.340Z,5.80
2018-05-21T02:13:36.772Z,5.20
2018-05-21T02:16:04.176Z,5.67
2018-05-21T02:18:31.594Z,5.07
2018-05-21T02:20:59.011Z,4.90
2018-05-21T02:23:26.764Z,5.83
2018-05-21T02:25:54.179Z,5.90
2018-05-21T02:28:21.602Z,5.77
2018-05-21T02:30:49.012Z,6.10
2018-05-21T02:33:16.427Z,4.93
2018-05-21T02:35:43.842Z,6.60
2018-05-21T02:38:11.241Z,7.07
2018-05-21T02:40:38.667Z,5.70
2018-05-21T02:43:06.091Z,6.40
2018-05-21T02:45:35.450Z,6.13
2018-05-21T02:48:02.882Z,6.63
2018-05-21T02:50:30.279Z,5.90
2018-05-21T02:52:57.724Z,5.73
2018-05-21T02:55:25.149Z,5.30
2018-05-21T02:57:52.565Z,5.70
2018-05-21T03:00:19.988Z,5.63
2018-05-21T03:02:47.404Z,6.37
2018-05-21T03:05:14.974Z,5.57
2018-05-21T03:07:42.389Z,6.10
2018-05-21T03:10:09.820Z,5.03
2018-05-21T03:12:37.229Z,5.20
2018-05-21T03:15:04.658Z,6.07
2018-05-21T03:17:32.065Z,5.07
2018-05-21T03:19:59.509Z,5.80
2018-05-21T03:22:26.921Z,5.73
2018-05-21T03:24:54.327Z,6.00
2018-05-21T03:27:21.756Z,6.00
2018-05-21T03:29:49.218Z,5.60
2018-05-21T03:32:16.636Z,5.33
2018-05-21T03:34:44.040Z,5.87
2018-05-21T03:37:11.463Z,5.70
2018-05-21T03:39:38.891Z,6.07
2018-05-21T03:42:06.357Z,6.10
2018-05-21T03:44:33.752Z,5.87
2018-05-21T03:47:01.160Z,6.70
2018-05-21T03:49:28.600Z,6.63
2018-05-21T03:51:56.000Z,5.93
2018-05-21T03:54:23.583Z,5.90
2018-05-21T03:56:50.990Z,6.27
2018-05-21T03:59:30.278Z,6.27
2018-05-21T04:02:09.353Z,6.10
2018-05-21T04:04:36.784Z,5.93
2018-05-21T04:07:04.198Z,6.13
2018-05-21T04:09:31.615Z,5.23
2018-05-21T04:11:59.114Z,6.37
2018-05-21T04:14:26.460Z,6.20
2018-05-21T04:16:53.874Z,5.50
2018-05-21T04:19:21.283Z,5.70
2018-05-21T04:21:48.696Z,5.83
2018-05-21T04:24:16.123Z,6.13
2018-05-21T04:26:43.524Z,6.20
2018-05-21T04:29:10.952Z,6.13
2018-05-21T04:31:38.353Z,5.87
2018-05-21T04:34:05.771Z,5.00
2018-05-21T04:36:33.293Z,4.93
2018-05-21T04:39:00.638Z,5.60
2018-05-21T04:41:28.047Z,4.47
2018-05-21T04:43:55.476Z,5.17
2018-05-21T04:46:22.881Z,4.60
2018-05-21T04:48:50.410Z,4.40
2018-05-21T04:51:17.812Z,4.73
2018-05-21T04:53:45.233Z,3.63
2018-05-21T04:56:12.656Z,3.97
2018-05-21T04:58:40.059Z,3.87
2018-05-21T05:01:07.489Z,3.95
2018-05-21T05:03:34.888Z,3.58
2018-05-21T05:06:02.313Z,3.90
2018-05-21T05:08:29.720Z,3.33
2018-05-21T05:10:57.153Z,3.50
2018-05-21T05:13:24.570Z,3.60
2018-05-21T05:15:52.013Z,3.53
2018-05-21T05:18:19.441Z,3.40
2018-05-21T05:20:46.866Z,3.35
2018-05-21T05:23:14.632Z,3.97
2018-05-21T05:25:42.044Z,3.53
2018-05-21T05:28:09.466Z,3.65
2018-05-21T05:30:36.880Z,3.67
2018-05-21T05:33:04.326Z,4.10
2018-05-21T05:35:31.735Z,3.40
2018-05-21T05:37:59.164Z,3.22
2018-05-21T05:40:26.608Z,3.47
2018-05-21T05:42:54.036Z,3.67
2018-05-21T05:45:21.452Z,3.70
2018-05-21T05:47:48.921Z,3.60
2018-05-21T05:50:16.336Z,3.92
2018-05-21T05:52:43.747Z,5.30
2018-05-21T05:55:11.164Z,3.85
2018-05-21T05:57:38.586Z,3.53
2018-05-21T06:00:06.358Z,3.75
2018-05-21T06:02:33.784Z,3.20
2018-05-21T06:05:01.197Z,3.97
2018-05-21T06:07:28.628Z,4.10
2018-05-21T06:09:56.032Z,4.37
2018-05-21T06:12:23.482Z,3.30
2018-05-21T06:14:50.952Z,3.85
2018-05-21T06:17:18.375Z,3.33
2018-05-21T06:19:45.783Z,4.03
2018-05-21T06:22:13.203Z,4.32
2018-05-21T06:24:40.628Z,4.18
2018-05-21T06:27:08.104Z,4.30
2018-05-21T06:29:35.528Z,4.25
2018-05-21T06:32:02.948Z,4.68
2018-05-21T06:34:30.434Z,4.82
2018-05-21T06:36:57.781Z,4.47
2018-05-21T06:39:25.212Z,4.65
2018-05-21T06:41:52.610Z,4.78
2018-05-21T06:44:20.095Z,4.12
2018-05-21T06:46:47.507Z,4.90
2018-05-21T06:49:15.110Z,4.35
2018-05-21T06:51:42.527Z,4.15
2018-05-21T06:54:10.928Z,4.30
2018-05-21T06:56:38.361Z,4.22
2018-05-21T06:59:05.802Z,5.47
2018-05-21T07:01:33.217Z,4.72
2018-05-21T07:04:00.636Z,5.37
2018-05-21T07:06:28.282Z,4.70
2018-05-21T07:08:55.702Z,4.50
2018-05-21T07:11:23.095Z,4.57
2018-05-21T07:13:50.524Z,4.47
2018-05-21T07:16:17.968Z,5.20
2018-05-21T07:18:45.371Z,4.72
2018-05-21T07:21:12.783Z,4.40
2018-05-21T07:23:40.208Z,4.80
2018-05-21T07:26:07.641Z,4.43
2018-05-21T07:28:35.056Z,4.90
2018-05-21T07:33:53.257Z,5.20
2018-05-21T07:36:20.748Z,4.43
2018-05-21T07:41:50.933Z,4.90
2018-05-21T07:44:18.349Z,4.87
2018-05-21T07:46:45.764Z,4.90
2018-05-21T07:49:13.516Z,5.00
2018-05-21T07:51:40.979Z,4.85
2018-05-21T07:54:08.336Z,4.78
2018-05-21T07:56:35.764Z,5.37
2018-05-21T07:59:03.177Z,5.25
2018-05-21T08:01:30.601Z,6.32
2018-05-21T08:03:58.024Z,5.70
2018-05-21T08:06:25.424Z,4.87
2018-05-21T08:08:52.848Z,4.62
2018-05-21T08:11:20.418Z,5.65
2018-05-21T08:13:47.827Z,4.90
2018-05-21T08:16:15.237Z,5.32
2018-05-21T08:18:42.669Z,5.37
2018-05-21T08:21:10.075Z,4.82
2018-05-21T08:23:37.833Z,4.18
2018-05-21T08:26:05.420Z,6.05
2018-05-21T08:28:32.824Z,4.85
2018-05-21T08:31:00.262Z,5.28
2018-05-21T08:33:27.664Z,5.70
2018-05-21T08:35:55.347Z,5.15
2018-05-21T08:38:22.751Z,5.55
2018-05-21T08:40:50.165Z,5.28
2018-05-21T08:43:17.604Z,4.97
2018-05-21T08:45:44.995Z,4.70
2018-05-21T08:48:12.417Z,4.80
2018-05-21T08:50:39.828Z,4.78
2018-05-21T08:53:07.253Z,4.90
2018-05-21T08:55:34.666Z,4.80
2018-05-21T08:58:02.097Z,5.55
2018-05-21T09:00:29.568Z,5.30
2018-05-21T09:02:56.926Z,4.97
2018-05-21T09:05:24.361Z,5.05
2018-05-21T09:07:51.775Z,5.50
2018-05-21T09:10:19.191Z,5.60
2018-05-21T09:12:46.621Z,4.93
2018-05-21T09:15:14.031Z,4.68
2018-05-21T09:17:41.458Z,4.47
2018-05-21T09:20:08.891Z,4.90
2018-05-21T09:22:36.360Z,4.85
2018-05-21T09:25:04.156Z,4.62
2018-05-21T09:27:31.565Z,4.47
2018-05-21T09:29:58.963Z,5.47
2018-05-21T09:32:26.482Z,5.12
2018-05-21T09:34:53.829Z,4.95
2018-05-21T09:37:21.266Z,4.30
2018-05-21T09:39:48.675Z,4.60
2018-05-21T09:42:16.118Z,4.37
2018-05-21T09:44:43.530Z,4.93
2018-05-21T09:47:10.948Z,4.50
2018-05-21T09:49:38.356Z,4.60
2018-05-21T09:52:05.867Z,5.47
2018-05-21T09:54:33.284Z,4.75
2018-05-21T09:57:00.705Z,4.72
2018-05-21T09:59:28.135Z,4.85
2018-05-21T10:01:55.536Z,4.72
2018-05-21T10:04:22.965Z,5.35
2018-05-21T10:06:50.402Z,4.57
2018-05-21T10:09:17.816Z,4.70
2018-05-21T10:11:45.294Z,4.70
2018-05-21T10:14:12.709Z,4.60
2018-05-21T10:16:40.131Z,4.72
2018-05-21T10:19:07.608Z,4.62
2018-05-21T10:21:35.038Z,4.50
2018-05-21T10:24:02.479Z,5.07
2018-05-21T10:26:29.898Z,4.62
2018-05-21T10:28:57.368Z,4.60
2018-05-21T10:31:24.796Z,4.62
2018-05-21T10:33:52.276Z,4.75
2018-05-21T10:36:19.793Z,4.95
2018-05-21T10:38:47.203Z,4.78
2018-05-21T10:41:15.160Z,4.37
2018-05-21T10:43:42.669Z,4.80
2018-05-21T10:46:10.032Z,4.65
2018-05-21T10:48:37.448Z,4.80
2018-05-21T10:51:04.863Z,4.93
2018-05-21T10:53:32.313Z,4.30
2018-05-21T10:55:59.744Z,5.30
2018-05-21T10:58:27.177Z,5.00
2018-05-21T11:00:54.620Z,4.60
2018-05-21T11:03:22.039Z,4.95
2018-05-21T11:05:49.454Z,4.37
2018-05-21T11:08:16.898Z,4.40
2018-05-21T11:10:44.314Z,4.10
2018-05-21T11:13:11.752Z,4.40
2018-05-21T11:15:39.171Z,4.90
2018-05-21T11:18:06.634Z,5.07
2018-05-21T11:20:34.056Z,4.97
2018-05-21T11:23:01.481Z,4.37
2018-05-21T11:25:28.912Z,4.35
2018-05-21T11:27:56.325Z,4.00
2018-05-21T11:30:23.762Z,4.30
2018-05-21T11:32:51.195Z,4.32
2018-05-21T11:35:18.646Z,4.35
2018-05-21T11:37:46.057Z,4.90
2018-05-21T11:40:13.469Z,4.60
2018-05-21T11:42:40.917Z,4.25
2018-05-21T11:45:08.332Z,4.22
2018-05-21T11:47:35.882Z,5.00
2018-05-21T11:50:03.299Z,5.15
2018-05-21T11:52:30.787Z,3.97
2018-05-21T11:54:58.176Z,4.32
2018-05-21T11:57:25.620Z,4.55
2018-05-21T11:59:53.033Z,4.07
2018-05-21T12:02:20.465Z,4.30
2018-05-21T12:04:47.888Z,4.22
2018-05-21T12:07:15.329Z,3.75
2018-05-21T12:09:43.173Z,4.35
2018-05-21T12:12:11.784Z,4.87
2018-05-21T12:14:39.377Z,3.90
2018-05-21T12:17:06.830Z,4.15
2018-05-21T12:19:34.252Z,4.07
2018-05-21T12:22:01.687Z,4.32
2018-05-21T12:24:29.140Z,5.05
2018-05-21T12:26:56.572Z,4.10
2018-05-21T12:29:24.003Z,4.10
2018-05-21T12:31:51.436Z,4.20
2018-05-21T12:34:18.892Z,4.45
2018-05-21T12:36:46.329Z,4.62
2018-05-21T12:39:13.768Z,4.43
2018-05-21T12:41:41.212Z,3.95
2018-05-21T12:44:08.646Z,4.37
2018-05-21T12:46:36.088Z,4.57
2018-05-21T12:49:03.524Z,4.75
2018-05-21T12:51:30.959Z,4.55
2018-05-21T12:53:58.371Z,4.45
2018-05-21T12:56:26.569Z,4.55
2018-05-21T12:58:53.990Z,4.47
2018-05-21T13:01:21.388Z,4.22
2018-05-21T13:03:48.836Z,4.30
2018-05-21T13:06:16.240Z,4.30
2018-05-21T13:08:43.673Z,4.93
2018-05-21T13:11:11.094Z,4.50
2018-05-21T13:13:38.531Z,4.62
2018-05-21T13:16:05.940Z,4.25
2018-05-21T13:18:33.361Z,4.60
2018-05-21T13:21:00.800Z,4.53
2018-05-21T13:23:28.229Z,4.18
2018-05-21T13:25:55.673Z,4.12
2018-05-21T13:28:23.077Z,4.75
2018-05-21T13:30:50.681Z,4.50
2018-05-21T13:33:18.101Z,4.07
2018-05-21T13:35:45.540Z,4.93
2018-05-21T13:38:12.967Z,4.45
2018-05-21T13:40:40.392Z,4.10
2018-05-21T13:43:08.186Z,4.53
2018-05-21T13:45:35.532Z,4.00
2018-05-21T13:48:02.941Z,4.75
2018-05-21T13:50:30.379Z,4.62
2018-05-21T13:52:57.778Z,4.15
2018-05-21T13:55:25.237Z,4.25
2018-05-21T13:57:52.640Z,4.22
2018-05-21T14:00:20.076Z,4.50
2018-05-21T14:02:47.506Z,3.85
2018-05-21T14:05:14.927Z,4.22
2018-05-21T14:07:42.368Z,4.30
2018-05-21T14:10:09.783Z,4.50
2018-05-21T14:12:37.528Z,4.15
2018-05-21T14:15:04.860Z,4.07
2018-05-21T14:17:32.267Z,4.20
2018-05-21T14:19:59.714Z,4.80
2018-05-21T14:22:27.136Z,4.95
2018-05-21T14:24:54.559Z,3.90
2018-05-21T14:27:21.975Z,4.35
2018-05-21T14:29:49.486Z,3.87
2018-05-21T14:32:16.861Z,4.22
2018-05-21T14:34:44.295Z,3.90
2018-05-21T14:37:11.725Z,4.30
2018-05-21T14:39:39.137Z,3.67
2018-05-21T14:42:06.569Z,4.30
2018-05-21T14:44:33.987Z,4.37
2018-05-21T14:47:01.413Z,4.07
2018-05-21T14:49:28.835Z,4.07
2018-05-21T14:51:56.256Z,3.97
2018-05-21T14:54:23.693Z,4.15
2018-05-21T14:56:51.117Z,4.10
2018-05-21T14:59:18.561Z,3.70
2018-05-21T15:01:46.005Z,4.05
2018-05-21T15:04:13.411Z,3.62
2018-05-21T15:06:40.857Z,4.30
2018-05-21T15:09:08.280Z,3.90
2018-05-21T15:11:35.708Z,4.37
2018-05-21T15:14:03.918Z,3.92
2018-05-21T15:16:31.328Z,4.25
2018-05-21T15:18:58.784Z,3.78
2018-05-21T15:21:26.196Z,3.70
2018-05-21T15:23:53.616Z,3.72
2018-05-21T15:26:21.031Z,4.22
2018-05-21T15:28:48.743Z,3.87
2018-05-21T15:31:16.156Z,4.53
2018-05-21T15:33:43.572Z,4.10
2018-05-21T15:36:11.336Z,3.95
2018-05-21T15:38:38.741Z,3.50
2018-05-21T15:41:06.314Z,4.00
2018-05-21T15:43:33.714Z,3.45
2018-05-21T15:46:01.139Z,4.10
2018-05-21T15:48:28.552Z,4.18
2018-05-21T15:50:55.967Z,4.20
2018-05-21T15:53:23.399Z,3.60
2018-05-21T15:55:50.831Z,4.28
2018-05-21T15:58:18.239Z,3.55
2018-05-21T16:00:45.677Z,4.03
2018-05-21T16:03:13.119Z,4.15
2018-05-21T16:05:40.647Z,4.45
2018-05-21T16:08:08.060Z,3.50
2018-05-21T16:10:35.512Z,3.47
2018-05-21T16:13:02.962Z,3.33
2018-05-21T16:15:30.363Z,4.20
2018-05-21T16:17:57.936Z,3.83
2018-05-21T16:20:25.199Z,3.70
2018-05-21T16:22:52.615Z,3.80
2018-05-21T16:25:20.077Z,3.58
2018-05-21T16:27:47.512Z,3.55
2018-05-21T16:30:14.969Z,3.85
2018-05-21T16:32:42.340Z,3.53
2018-05-21T16:35:09.772Z,4.00
2018-05-21T16:37:37.185Z,3.90
2018-05-21T16:40:04.991Z,3.78
2018-05-21T16:42:32.421Z,3.53
2018-05-21T16:44:59.828Z,3.42
2018-05-21T16:47:27.311Z,3.67
2018-05-21T16:49:54.726Z,3.80
2018-05-21T16:52:23.041Z,3.45
2018-05-21T16:54:50.484Z,3.10
2018-05-21T16:57:17.980Z,3.17
2018-05-21T16:59:45.433Z,3.25
2018-05-21T17:02:12.930Z,3.30
2018-05-21T17:04:40.605Z,3.70
2018-05-21T17:07:08.203Z,3.80
2018-05-21T17:09:35.706Z,3.28
2018-05-21T17:12:03.148Z,3.83
2018-05-21T17:14:30.632Z,3.72
2018-05-21T17:16:58.084Z,3.67
2018-05-21T17:19:25.524Z,3.22
2018-05-21T17:21:52.948Z,3.17
2018-05-21T17:24:20.413Z,3.03
2018-05-21T17:26:47.833Z,3.35
2018-05-21T17:29:15.284Z,3.55
2018-05-21T17:31:42.701Z,3.17
2018-05-21T17:34:10.176Z,3.50
2018-05-21T17:36:42.181Z,3.55
2018-05-21T17:39:09.681Z,3.72
2018-05-21T17:41:37.122Z,3.15
2018-05-21T17:44:04.564Z,3.35
2018-05-21T17:46:31.984Z,3.40
2018-05-21T17:48:59.418Z,3.22
2018-05-21T17:51:26.891Z,3.50
2018-05-21T17:53:54.351Z,3.20
2018-05-21T17:56:21.763Z,3.60
2018-05-21T17:58:49.310Z,3.03
2018-05-21T18:01:16.739Z,3.37
2018-05-21T18:03:44.249Z,3.50
2018-05-21T18:06:11.977Z,2.92
2018-05-21T18:08:39.401Z,3.15
2018-05-21T18:11:06.925Z,3.47
2018-05-21T18:13:34.360Z,3.12
2018-05-21T18:16:01.785Z,4.20
2018-05-21T18:18:29.245Z,3.60
2018-05-21T18:20:56.675Z,3.37
2018-05-21T18:23:24.144Z,3.40
2018-05-21T18:25:51.904Z,3.83
2018-05-21T18:28:19.410Z,3.17
2018-05-21T18:30:46.836Z,3.87
2018-05-21T18:33:14.275Z,3.60
2018-05-21T18:35:41.822Z,3.85
2018-05-21T18:38:09.258Z,3.87
2018-05-21T18:40:36.667Z,3.57
2018-05-21T18:43:04.091Z,4.50
2018-05-21T18:45:31.512Z,3.83
2018-05-21T18:47:58.949Z,3.70
2018-05-21T18:50:26.361Z,3.70
2018-05-21T18:52:53.819Z,4.00
2018-05-21T18:55:21.243Z,3.20
2018-05-21T18:57:48.671Z,3.73
2018-05-21T19:00:16.089Z,3.97
2018-05-21T19:02:43.809Z,4.13
2018-05-21T19:05:11.235Z,4.10
2018-05-21T19:07:38.641Z,3.90
2018-05-21T19:10:06.118Z,4.77
2018-05-21T19:12:33.547Z,4.27
2018-05-21T19:15:01.023Z,4.20
2018-05-21T19:17:28.456Z,3.73
2018-05-21T19:19:55.890Z,4.23
2018-05-21T19:22:23.342Z,3.90
2018-05-21T19:24:50.778Z,3.93
2018-05-21T19:27:18.184Z,3.60
2018-05-21T19:29:45.600Z,3.80
2018-05-21T19:32:13.012Z,3.90
2018-05-21T19:34:40.432Z,3.87
2018-05-21T19:37:07.980Z,3.97
2018-05-21T19:39:35.387Z,3.97
2018-05-21T19:42:02.814Z,3.80
2018-05-21T19:44:30.216Z,3.60
2018-05-21T19:46:57.638Z,3.80
2018-05-21T19:49:25.153Z,3.90
2018-05-21T19:51:52.643Z,3.70
2018-05-21T19:54:20.077Z,3.47
2018-05-21T19:56:47.520Z,3.27
2018-05-21T19:59:14.975Z,3.87
2018-05-21T20:01:42.389Z,3.17
2018-05-21T20:04:09.808Z,3.60
2018-05-21T20:06:37.236Z,3.33
2018-05-21T20:09:05.465Z,3.53
2018-05-21T20:11:33.173Z,3.90
2018-05-21T20:14:00.576Z,3.40
2018-05-21T20:16:27.979Z,3.70
2018-05-21T20:18:55.415Z,3.37
2018-05-21T20:21:22.827Z,4.00
2018-05-21T20:23:50.261Z,4.50
2018-05-21T20:26:17.662Z,3.97
2018-05-21T20:28:45.114Z,4.10
2018-05-21T20:31:12.541Z,3.93
2018-05-21T20:33:39.970Z,4.07
2018-05-21T20:36:07.380Z,3.30
2018-05-21T20:38:34.796Z,3.67
2018-05-21T20:41:02.226Z,4.10
2018-05-21T20:43:29.650Z,3.83
2018-05-21T20:45:57.094Z,3.77
2018-05-21T20:48:24.525Z,3.60
2018-05-21T20:50:51.935Z,3.60
2018-05-21T20:53:19.365Z,3.87
2018-05-21T20:55:46.770Z,4.57
2018-05-21T20:58:14.332Z,4.33
2018-05-21T21:00:41.745Z,3.77
2018-05-21T21:03:09.149Z,4.50
2018-05-21T21:05:36.572Z,3.70
2018-05-21T21:08:04.000Z,4.50
2018-05-21T21:10:31.490Z,4.20
2018-05-21T21:12:58.831Z,4.00
2018-05-21T21:15:26.246Z,4.30
2018-05-21T21:17:53.663Z,4.33
2018-05-21T21:20:21.081Z,4.53
2018-05-21T21:22:48.505Z,4.53
2018-05-21T21:25:15.912Z,4.10
2018-05-21T21:27:43.320Z,4.17
2018-05-21T21:30:10.740Z,3.47
2018-05-21T21:32:38.497Z,3.87
2018-05-21T21:35:05.871Z,3.80
2018-05-21T21:37:33.281Z,4.17
2018-05-21T21:40:00.703Z,5.07
2018-05-21T21:42:28.114Z,4.87
2018-05-21T21:44:55.658Z,4.30
2018-05-21T21:47:23.144Z,4.07
2018-05-21T21:49:50.654Z,4.80
2018-05-21T21:52:18.084Z,4.30
2018-05-21T21:54:45.499Z,4.63
2018-05-21T21:57:12.935Z,4.57
2018-05-21T21:59:40.351Z,5.13
2018-05-21T22:02:07.788Z,5.00
2018-05-21T22:04:35.226Z,5.30
2018-05-21T22:07:02.652Z,5.30
2018-05-21T22:09:30.125Z,6.53
2018-05-21T22:11:57.537Z,5.47
2018-05-21T22:14:24.983Z,4.70
2018-05-21T22:16:52.442Z,5.17
2018-05-21T22:19:19.857Z,4.80
2018-05-21T22:21:47.283Z,5.10
2018-05-21T22:24:14.698Z,4.77
2018-05-21T22:26:42.125Z,4.70
2018-05-21T22:29:09.541Z,5.03
2018-05-21T22:31:37.012Z,4.60
2018-05-21T22:34:04.439Z,4.67
2018-05-21T22:36:31.850Z,4.80
2018-05-21T22:38:59.276Z,4.73
2018-05-21T22:41:26.684Z,4.90
2018-05-21T22:43:54.122Z,4.87
2018-05-21T22:46:21.532Z,5.00
2018-05-21T22:48:48.937Z,5.30
2018-05-21T22:51:16.363Z,5.37
2018-05-21T22:53:43.775Z,4.87
2018-05-21T22:56:11.200Z,5.13
2018-05-21T22:58:38.731Z,5.30
2018-05-21T23:01:06.165Z,4.27
2018-05-21T23:03:33.603Z,5.50
2018-05-21T23:06:01.016Z,5.00
2018-05-21T23:08:28.446Z,5.63
2018-05-21T23:10:55.860Z,5.53
2018-05-21T23:13:23.692Z,5.77
2018-05-21T23:15:51.103Z,5.37
2018-05-21T23:18:18.516Z,5.43
2018-05-21T23:20:45.951Z,4.83
2018-05-21T23:23:13.379Z,5.10
2018-05-21T23:25:40.827Z,5.80
2018-05-21T23:28:08.252Z,5.47
2018-05-21T23:30:35.667Z,4.97
2018-05-21T23:33:03.100Z,5.77
2018-05-21T23:35:30.528Z,5.50
2018-05-21T23:37:57.944Z,5.40
2018-05-21T23:40:25.357Z,6.20
2018-05-21T23:42:52.788Z,6.20
2018-05-21T23:45:20.204Z,5.90
2018-05-21T23:47:47.628Z,5.47
2018-05-21T23:50:15.066Z,5.50
2018-05-21T23:52:42.540Z,5.23
2018-05-21T23:55:09.959Z,6.27
2018-05-21T23:57:37.400Z,5.63
